QFA69 WSSS-YPDN
Flight info
| Callsign | QFA69 |
|---|---|
| Flight time | N/A |
| Altitude | 33000 |
| Route | IDBUD1A IDBUD T24 SURGA M635 BLI M766 IDOTO DCT ANUPA ANUPA2X |
| Aircraft | B738/M-SDE2E3FGHIRWXY/LB1 |
Departure
| Time | 2026-05-01 07:23 |
|---|---|
| Airport | Singapore Changi Airport (WSSS) |
Arrival
| Time | N/A |
|---|---|
| Airport | Darwin International Airport / RAAF Darwin (YPDN) |
| Time | Latitude | Longitude | Altitude | Speed | Heading |
|---|---|---|---|---|---|
| 2026-05-01 07:23 | 1.31372 | 103.97734 | 1911 ft | 188 kts | 195° |
| 2026-05-01 07:23 | 1.28712 | 103.96765 | 2751 ft | 217 kts | 201° |
| 2026-05-01 07:24 | 1.27224 | 103.96118 | 3106 ft | 239 kts | 202° |
| 2026-05-01 07:24 | 1.25635 | 103.95435 | 3597 ft | 254 kts | 201° |
| 2026-05-01 07:24 | 1.23936 | 103.94759 | 4090 ft | 268 kts | 195° |
| 2026-05-01 07:24 | 1.22080 | 103.94508 | 4682 ft | 274 kts | 172° |
| 2026-05-01 07:25 | 1.20199 | 103.94881 | 5424 ft | 275 kts | 162° |
| 2026-05-01 07:25 | 1.18326 | 103.95417 | 5908 ft | 280 kts | 162° |
| 2026-05-01 07:25 | 1.16451 | 103.95949 | 6002 ft | 281 kts | 162° |
| 2026-05-01 07:25 | 1.14555 | 103.96452 | 6004 ft | 278 kts | 163° |
| 2026-05-01 07:26 | 1.12669 | 103.96926 | 6003 ft | 278 kts | 164° |
| 2026-05-01 07:26 | 1.10798 | 103.97490 | 6000 ft | 277 kts | 155° |
| 2026-05-01 07:26 | 1.09131 | 103.98451 | 6005 ft | 275 kts | 142° |
| 2026-05-01 07:26 | 1.07614 | 103.99652 | 6003 ft | 274 kts | 138° |
| 2026-05-01 07:27 | 1.06143 | 104.00878 | 6002 ft | 274 kts | 139° |
| 2026-05-01 07:27 | 1.04656 | 104.02087 | 6002 ft | 274 kts | 140° |
| 2026-05-01 07:27 | 1.03203 | 104.03335 | 5977 ft | 274 kts | 132° |
| 2026-05-01 07:27 | 1.02098 | 104.04884 | 5923 ft | 270 kts | 115° |
| 2026-05-01 07:28 | 1.01358 | 104.06622 | 5923 ft | 270 kts | 110° |
| 2026-05-01 07:28 | 1.00688 | 104.08383 | 5920 ft | 270 kts | 110° |
| 2026-05-01 07:28 | 0.99999 | 104.10139 | 5920 ft | 270 kts | 111° |
| 2026-05-01 07:28 | 0.99278 | 104.11893 | 5920 ft | 271 kts | 111° |
| 2026-05-01 07:29 | 0.98536 | 104.13656 | 5998 ft | 281 kts | 112° |
| 2026-05-01 07:29 | 0.97775 | 104.15457 | 6880 ft | 277 kts | 112° |
| 2026-05-01 07:29 | 0.97035 | 104.17207 | 7693 ft | 276 kts | 112° |
| 2026-05-01 07:29 | 0.96279 | 104.18995 | 8443 ft | 278 kts | 112° |
| 2026-05-01 07:30 | 0.95539 | 104.20752 | 9150 ft | 279 kts | 112° |
| 2026-05-01 07:30 | 0.94755 | 104.22552 | 9856 ft | 282 kts | 115° |
| 2026-05-01 07:30 | 0.93818 | 104.24280 | 10416 ft | 289 kts | 119° |
| 2026-05-01 07:30 | 0.92702 | 104.26067 | 10738 ft | 306 kts | 121° |
| 2026-05-01 07:31 | 0.91518 | 104.27897 | 11037 ft | 321 kts | 121° |
| 2026-05-01 07:31 | 0.87657 | 104.33985 | 11749 ft | 367 kts | 121° |